sensor_id;sensor_type;location;lat;lon;timestamp;pressure;altitude;pressure_sealevel;temperature;humidity
72525;BME280;60547;48.502;8.996;2023-05-11T00:01:51;97731.44;;;10.97;87.59
72525;BME280;60547;48.502;8.996;2023-05-11T00:04:17;97727.53;;;10.94;87.70
72525;BME280;60547;48.502;8.996;2023-05-11T00:06:42;97694.44;;;10.71;87.99
72525;BME280;60547;48.502;8.996;2023-05-11T00:09:08;97698.44;;;10.70;88.21
72525;BME280;60547;48.502;8.996;2023-05-11T00:11:35;97686.84;;;10.72;87.87
72525;BME280;60547;48.502;8.996;2023-05-11T00:14:01;97691.19;;;10.73;87.74
72525;BME280;60547;48.502;8.996;2023-05-11T00:16:26;97738.00;;;11.03;87.01
72525;BME280;60547;48.502;8.996;2023-05-11T00:18:52;97716.84;;;10.93;87.09
72525;BME280;60547;48.502;8.996;2023-05-11T00:21:17;97728.31;;;11.08;86.62
72525;BME280;60547;48.502;8.996;2023-05-11T00:23:43;97692.00;;;10.86;86.57
72525;BME280;60547;48.502;8.996;2023-05-11T00:26:08;97731.00;;;11.11;86.04
72525;BME280;60547;48.502;8.996;2023-05-11T00:28:34;97674.28;;;10.80;85.59
72525;BME280;60547;48.502;8.996;2023-05-11T00:30:59;97662.81;;;10.78;85.56
72525;BME280;60547;48.502;8.996;2023-05-11T00:33:25;97657.34;;;10.61;86.08
72525;BME280;60547;48.502;8.996;2023-05-11T00:35:51;97719.75;;;11.02;86.12
72525;BME280;60547;48.502;8.996;2023-05-11T00:38:16;97708.16;;;10.91;86.70
72525;BME280;60547;48.502;8.996;2023-05-11T00:40:42;97711.59;;;10.95;86.54
72525;BME280;60547;48.502;8.996;2023-05-11T00:43:07;97704.03;;;11.08;85.96
72525;BME280;60547;48.502;8.996;2023-05-11T00:45:34;97697.69;;;10.95;85.65
72525;BME280;60547;48.502;8.996;2023-05-11T00:48:00;97662.16;;;10.74;85.48
72525;BME280;60547;48.502;8.996;2023-05-11T00:50:26;97666.50;;;10.75;85.97
72525;BME280;60547;48.502;8.996;2023-05-11T00:52:52;97698.03;;;10.97;85.84
72525;BME280;60547;48.502;8.996;2023-05-11T00:55:20;97665.16;;;10.92;85.59
72525;BME280;60547;48.502;8.996;2023-05-11T00:57:46;97698.16;;;11.06;85.93
72525;BME280;60547;48.502;8.996;2023-05-11T01:00:12;97697.81;;;11.04;85.65
72525;BME280;60547;48.502;8.996;2023-05-11T01:02:39;97709.72;;;11.17;85.44
72525;BME280;60547;48.502;8.996;2023-05-11T01:05:06;97649.78;;;10.75;86.11
72525;BME280;60547;48.502;8.996;2023-05-11T01:07:47;97704.38;;;11.10;86.27
72525;BME280;60547;48.502;8.996;2023-05-11T01:13:13;97712.97;;;11.16;85.93
72525;BME280;60547;48.502;8.996;2023-05-11T01:15:52;97689.00;;;10.93;86.25
72525;BME280;60547;48.502;8.996;2023-05-11T01:18:24;97689.00;;;10.93;86.76
72525;BME280;60547;48.502;8.996;2023-05-11T01:20:54;97664.38;;;10.79;86.27
72525;BME280;60547;48.502;8.996;2023-05-11T01:23:47;97692.13;;;10.95;86.31
72525;BME280;60547;48.502;8.996;2023-05-11T01:26:36;97699.03;;;11.03;86.45
72525;BME280;60547;48.502;8.996;2023-05-11T01:29:20;97707.16;;;11.10;86.65
72525;BME280;60547;48.502;8.996;2023-05-11T01:31:53;97700.81;;;10.97;87.09
72525;BME280;60547;48.502;8.996;2023-05-11T01:34:22;97679.19;;;10.88;87.05
72525;BME280;60547;48.502;8.996;2023-05-11T01:36:57;97678.09;;;10.86;87.33
72525;BME280;60547;48.502;8.996;2023-05-11T01:39:31;97682.44;;;10.87;87.43
72525;BME280;60547;48.502;8.996;2023-05-11T01:42:03;97666.50;;;10.75;87.22
72525;BME280;60547;48.502;8.996;2023-05-11T01:44:32;97694.47;;;10.96;87.45
72525;BME280;60547;48.502;8.996;2023-05-11T01:46:59;97695.25;;;10.97;87.41
72525;BME280;60547;48.502;8.996;2023-05-11T01:49:26;97663.78;;;10.58;87.86
72525;BME280;60547;48.502;8.996;2023-05-11T01:51:54;97711.94;;;10.97;88.12
72525;BME280;60547;48.502;8.996;2023-05-11T01:54:20;97704.03;;;10.83;87.60
72525;BME280;60547;48.502;8.996;2023-05-11T01:56:47;97665.25;;;10.63;87.34
72525;BME280;60547;48.502;8.996;2023-05-11T01:59:15;97715.94;;;10.96;87.57
72525;BME280;60547;48.502;8.996;2023-05-11T02:01:43;97702.78;;;10.84;88.16
72525;BME280;60547;48.502;8.996;2023-05-11T02:04:13;97683.19;;;10.75;87.98
72525;BME280;60547;48.502;8.996;2023-05-11T02:06:40;97714.28;;;10.86;88.07
72525;BME280;60547;48.502;8.996;2023-05-11T02:09:08;97638.16;;;10.38;87.28
72525;BME280;60547;48.502;8.996;2023-05-11T02:11:37;97710.59;;;10.89;87.20
72525;BME280;60547;48.502;8.996;2023-05-11T02:14:05;97675.50;;;10.66;87.84
72525;BME280;60547;48.502;8.996;2023-05-11T02:16:34;97704.34;;;10.85;87.60
72525;BME280;60547;48.502;8.996;2023-05-11T02:19:00;97706.81;;;10.83;87.36
72525;BME280;60547;48.502;8.996;2023-05-11T02:21:26;97667.81;;;10.57;87.67
72525;BME280;60547;48.502;8.996;2023-05-11T02:23:53;97644.72;;;10.31;88.10
72525;BME280;60547;48.502;8.996;2023-05-11T02:26:19;97714.38;;;10.82;88.18
72525;BME280;60547;48.502;8.996;2023-05-11T02:28:44;97703.56;;;10.84;87.57
72525;BME280;60547;48.502;8.996;2023-05-11T02:31:24;97710.81;;;10.94;87.53
72525;BME280;60547;48.502;8.996;2023-05-11T02:33:54;97677.84;;;10.67;87.25
72525;BME280;60547;48.502;8.996;2023-05-11T02:36:21;97710.38;;;10.96;86.84
72525;BME280;60547;48.502;8.996;2023-05-11T02:38:49;97714.72;;;10.97;86.69
72525;BME280;60547;48.502;8.996;2023-05-11T02:41:20;97694.00;;;10.85;86.91
72525;BME280;60547;48.502;8.996;2023-05-11T02:43:50;97698.56;;;10.92;87.28
72525;BME280;60547;48.502;8.996;2023-05-11T02:46:20;97690.09;;;10.83;87.52
72525;BME280;60547;48.502;8.996;2023-05-11T02:48:52;97658.34;;;10.55;87.36
72525;BME280;60547;48.502;8.996;2023-05-11T02:51:23;97674.38;;;10.63;88.33
72525;BME280;60547;48.502;8.996;2023-05-11T02:53:53;97703.69;;;10.93;87.82
72525;BME280;60547;48.502;8.996;2023-05-11T02:56:23;97710.50;;;10.92;87.77
72525;BME280;60547;48.502;8.996;2023-05-11T02:58:48;97671.94;;;10.65;88.06
72525;BME280;60547;48.502;8.996;2023-05-11T03:01:14;97670.72;;;10.66;87.78
72525;BME280;60547;48.502;8.996;2023-05-11T03:03:41;97657.13;;;10.56;87.76
72525;BME280;60547;48.502;8.996;2023-05-11T03:06:06;97622.56;;;10.28;87.99
72525;BME280;60547;48.502;8.996;2023-05-11T03:08:32;97650.31;;;10.44;88.15
72525;BME280;60547;48.502;8.996;2023-05-11T03:10:58;97685.16;;;10.61;88.63
72525;BME280;60547;48.502;8.996;2023-05-11T03:13:26;97653.28;;;10.37;88.40
72525;BME280;60547;48.502;8.996;2023-05-11T03:15:53;97688.97;;;10.67;88.10
72525;BME280;60547;48.502;8.996;2023-05-11T03:18:19;97647.22;;;10.55;87.68
72525;BME280;60547;48.502;8.996;2023-05-11T03:20:46;97696.69;;;10.89;87.30
72525;BME280;60547;48.502;8.996;2023-05-11T03:23:13;97658.00;;;10.53;87.14
72525;BME280;60547;48.502;8.996;2023-05-11T03:25:41;97663.38;;;10.73;87.04
72525;BME280;60547;48.502;8.996;2023-05-11T03:28:08;97677.84;;;10.80;86.90
72525;BME280;60547;48.502;8.996;2023-05-11T03:30:35;97688.66;;;10.91;87.43
72525;BME280;60547;48.502;8.996;2023-05-11T03:33:02;97673.84;;;10.81;87.52
72525;BME280;60547;48.502;8.996;2023-05-11T03:35:28;97646.22;;;10.61;87.09
72525;BME280;60547;48.502;8.996;2023-05-11T03:37:56;97696.22;;;10.90;87.06
72525;BME280;60547;48.502;8.996;2023-05-11T03:40:23;97652.78;;;10.67;87.96
72525;BME280;60547;48.502;8.996;2023-05-11T03:42:52;97605.09;;;10.27;88.26
72525;BME280;60547;48.502;8.996;2023-05-11T03:45:19;97659.25;;;10.64;88.22
72525;BME280;60547;48.502;8.996;2023-05-11T03:47:47;97679.19;;;10.76;88.40
72525;BME280;60547;48.502;8.996;2023-05-11T03:50:13;97679.28;;;10.72;88.56
72525;BME280;60547;48.502;8.996;2023-05-11T03:52:39;97677.41;;;10.82;88.31
72525;BME280;60547;48.502;8.996;2023-05-11T03:55:06;97657.56;;;10.67;88.16
72525;BME280;60547;48.502;8.996;2023-05-11T03:57:32;97675.84;;;10.81;88.56
72525;BME280;60547;48.502;8.996;2023-05-11T03:59:57;97655.56;;;10.67;88.84
72525;BME280;60547;48.502;8.996;2023-05-11T04:02:23;97649.53;;;10.56;88.70
72525;BME280;60547;48.502;8.996;2023-05-11T04:04:49;97654.34;;;10.56;88.98
72525;BME280;60547;48.502;8.996;2023-05-11T04:07:15;97642.84;;;10.41;88.79
72525;BME280;60547;48.502;8.996;2023-05-11T04:09:40;97644.41;;;10.42;88.58
72525;BME280;60547;48.502;8.996;2023-05-11T04:12:14;97631.94;;;10.47;88.19
72525;BME280;60547;48.502;8.996;2023-05-11T04:14:40;97680.75;;;10.77;88.97
72525;BME280;60547;48.502;8.996;2023-05-11T04:17:06;97619.03;;;10.40;88.89
72525;BME280;60547;48.502;8.996;2023-05-11T04:19:31;97654.56;;;10.61;89.27
72525;BME280;60547;48.502;8.996;2023-05-11T04:21:57;97646.97;;;10.49;89.26
72525;BME280;60547;48.502;8.996;2023-05-11T04:24:22;97681.06;;;10.66;89.02
72525;BME280;60547;48.502;8.996;2023-05-11T04:26:48;97638.50;;;10.40;89.33
72525;BME280;60547;48.502;8.996;2023-05-11T04:29:13;97624.47;;;10.31;88.21
72525;BME280;60547;48.502;8.996;2023-05-11T04:31:39;97659.34;;;10.61;88.58
72525;BME280;60547;48.502;8.996;2023-05-11T04:34:07;97661.34;;;10.60;88.83
72525;BME280;60547;48.502;8.996;2023-05-11T04:36:32;97691.78;;;10.80;88.38
72525;BME280;60547;48.502;8.996;2023-05-11T04:38:58;97667.03;;;10.70;89.10
72525;BME280;60547;48.502;8.996;2023-05-11T04:41:23;97679.28;;;10.72;89.20
72525;BME280;60547;48.502;8.996;2023-05-11T04:43:49;97681.97;;;10.76;89.75
72525;BME280;60547;48.502;8.996;2023-05-11T04:46:14;97692.56;;;10.81;90.14
72525;BME280;60547;48.502;8.996;2023-05-11T04:48:40;97694.66;;;10.77;90.12
72525;BME280;60547;48.502;8.996;2023-05-11T04:51:06;97688.31;;;10.76;89.58
72525;BME280;60547;48.502;8.996;2023-05-11T04:53:31;97687.97;;;10.74;90.04
72525;BME280;60547;48.502;8.996;2023-05-11T04:55:57;97686.06;;;10.71;90.11
72525;BME280;60547;48.502;8.996;2023-05-11T04:58:22;97694.22;;;10.78;90.13
72525;BME280;60547;48.502;8.996;2023-05-11T05:00:48;97680.06;;;10.73;90.40
72525;BME280;60547;48.502;8.996;2023-05-11T05:03:13;97678.16;;;10.70;90.25
72525;BME280;60547;48.502;8.996;2023-05-11T05:05:39;97673.63;;;10.76;90.07
72525;BME280;60547;48.502;8.996;2023-05-11T05:08:04;97688.78;;;10.87;89.51
72525;BME280;60547;48.502;8.996;2023-05-11T05:10:31;97697.00;;;10.91;89.47
72525;BME280;60547;48.502;8.996;2023-05-11T05:12:57;97697.56;;;10.86;89.22
72525;BME280;60547;48.502;8.996;2023-05-11T05:15:22;97685.00;;;10.94;89.21
72525;BME280;60547;48.502;8.996;2023-05-11T05:17:48;97683.44;;;10.93;88.87
72525;BME280;60547;48.502;8.996;2023-05-11T05:20:13;97674.97;;;10.84;89.19
72525;BME280;60547;48.502;8.996;2023-05-11T05:22:39;97697.13;;;11.00;89.07
72525;BME280;60547;48.502;8.996;2023-05-11T05:25:05;97699.03;;;11.03;88.85
72525;BME280;60547;48.502;8.996;2023-05-11T05:27:30;97687.91;;;11.03;88.70
72525;BME280;60547;48.502;8.996;2023-05-11T05:29:57;97696.59;;;11.05;88.59
72525;BME280;60547;48.502;8.996;2023-05-11T05:32:22;97691.91;;;11.02;87.29
72525;BME280;60547;48.502;8.996;2023-05-11T05:34:48;97685.88;;;11.04;87.25
72525;BME280;60547;48.502;8.996;2023-05-11T05:37:13;97691.56;;;11.13;86.61
72525;BME280;60547;48.502;8.996;2023-05-11T05:39:39;97692.25;;;11.17;86.28
72525;BME280;60547;48.502;8.996;2023-05-11T05:42:04;97697.47;;;11.15;86.39
72525;BME280;60547;48.502;8.996;2023-05-11T05:44:30;97683.00;;;11.07;86.92
72525;BME280;60547;48.502;8.996;2023-05-11T05:46:55;97698.59;;;11.17;86.46
72525;BME280;60547;48.502;8.996;2023-05-11T05:49:21;97688.00;;;11.12;85.86
72525;BME280;60547;48.502;8.996;2023-05-11T05:51:46;97700.47;;;11.20;85.58
72525;BME280;60547;48.502;8.996;2023-05-11T05:54:12;97699.25;;;11.21;85.88
72525;BME280;60547;48.502;8.996;2023-05-11T05:56:38;97703.03;;;11.27;86.17
72525;BME280;60547;48.502;8.996;2023-05-11T05:59:06;97704.59;;;11.28;86.07
72525;BME280;60547;48.502;8.996;2023-05-11T06:01:33;97689.91;;;11.15;85.83
72525;BME280;60547;48.502;8.996;2023-05-11T06:03:59;97689.78;;;11.19;86.34
72525;BME280;60547;48.502;8.996;2023-05-11T06:06:25;97700.59;;;11.29;86.08
72525;BME280;60547;48.502;8.996;2023-05-11T06:08:50;97708.06;;;11.32;85.77
72525;BME280;60547;48.502;8.996;2023-05-11T06:11:15;97706.72;;;11.37;85.68
72525;BME280;60547;48.502;8.996;2023-05-11T06:13:41;97703.81;;;11.41;85.76
72525;BME280;60547;48.502;8.996;2023-05-11T06:16:06;97710.63;;;11.40;85.51
72525;BME280;60547;48.502;8.996;2023-05-11T06:18:32;97711.16;;;11.47;85.26
72525;BME280;60547;48.502;8.996;2023-05-11T06:20:58;97709.72;;;11.43;85.27
72525;BME280;60547;48.502;8.996;2023-05-11T06:23:23;97704.59;;;11.54;85.17
72525;BME280;60547;48.502;8.996;2023-05-11T06:25:49;97708.25;;;11.51;84.82
72525;BME280;60547;48.502;8.996;2023-05-11T06:28:15;97694.22;;;11.42;85.23
72525;BME280;60547;48.502;8.996;2023-05-11T06:30:40;97699.69;;;11.58;84.74
72525;BME280;60547;48.502;8.996;2023-05-11T06:33:06;97705.25;;;11.58;84.84
72525;BME280;60547;48.502;8.996;2023-05-11T06:35:31;97701.69;;;11.57;84.68
72525;BME280;60547;48.502;8.996;2023-05-11T06:37:57;97708.47;;;11.69;84.85
72525;BME280;60547;48.502;8.996;2023-05-11T06:40:23;97697.56;;;11.62;84.92
72525;BME280;60547;48.502;8.996;2023-05-11T06:42:49;97712.69;;;11.74;85.45
72525;BME280;60547;48.502;8.996;2023-05-11T06:45:14;97695.31;;;11.70;85.63
72525;BME280;60547;48.502;8.996;2023-05-11T06:47:40;97702.31;;;11.74;85.34
72525;BME280;60547;48.502;8.996;2023-05-11T06:50:06;97714.69;;;11.86;84.35
72525;BME280;60547;48.502;8.996;2023-05-11T06:52:32;97703.88;;;11.75;84.69
72525;BME280;60547;48.502;8.996;2023-05-11T06:54:57;97706.22;;;11.77;85.23
72525;BME280;60547;48.502;8.996;2023-05-11T06:57:23;97713.25;;;11.81;85.97
72525;BME280;60547;48.502;8.996;2023-05-11T06:59:48;97701.34;;;11.81;86.85
72525;BME280;60547;48.502;8.996;2023-05-11T07:02:14;97719.50;;;11.85;86.13
72525;BME280;60547;48.502;8.996;2023-05-11T07:04:40;97705.03;;;11.78;86.61
72525;BME280;60547;48.502;8.996;2023-05-11T07:07:05;97706.13;;;11.80;86.68
72525;BME280;60547;48.502;8.996;2023-05-11T07:09:31;97686.81;;;11.73;86.05
72525;BME280;60547;48.502;8.996;2023-05-11T07:11:57;97712.13;;;11.91;86.78
72525;BME280;60547;48.502;8.996;2023-05-11T07:14:22;97707.56;;;11.85;86.57
72525;BME280;60547;48.502;8.996;2023-05-11T07:16:48;97711.47;;;11.87;85.50
72525;BME280;60547;48.502;8.996;2023-05-11T07:19:17;97717.03;;;11.87;86.72
72525;BME280;60547;48.502;8.996;2023-05-11T07:21:43;97704.66;;;11.76;87.66
72525;BME280;60547;48.502;8.996;2023-05-11T07:24:08;97719.50;;;11.85;88.31
72525;BME280;60547;48.502;8.996;2023-05-11T07:26:34;97716.81;;;11.94;87.50
72525;BME280;60547;48.502;8.996;2023-05-11T07:28:59;97722.72;;;11.96;87.50
72525;BME280;60547;48.502;8.996;2023-05-11T07:31:25;97716.81;;;11.94;87.90
72525;BME280;60547;48.502;8.996;2023-05-11T07:33:50;97716.47;;;11.92;88.06
72525;BME280;60547;48.502;8.996;2023-05-11T07:36:15;97703.88;;;11.75;87.79
72525;BME280;60547;48.502;8.996;2023-05-11T07:38:41;97717.03;;;11.87;86.77
72525;BME280;60547;48.502;8.996;2023-05-11T07:41:06;97724.84;;;11.92;85.65
72525;BME280;60547;48.502;8.996;2023-05-11T07:43:32;97729.06;;;11.97;85.50
72525;BME280;60547;48.502;8.996;2023-05-11T07:45:57;97701.88;;;11.88;85.64
72525;BME280;60547;48.502;8.996;2023-05-11T07:48:23;97714.66;;;11.99;85.76
72525;BME280;60547;48.502;8.996;2023-05-11T07:50:48;97724.25;;;11.98;86.77
72525;BME280;60547;48.502;8.996;2023-05-11T07:53:14;97719.13;;;11.96;86.09
72525;BME280;60547;48.502;8.996;2023-05-11T07:55:40;97710.53;;;12.03;85.64
72525;BME280;60547;48.502;8.996;2023-05-11T07:58:06;97694.16;;;11.92;85.47
72525;BME280;60547;48.502;8.996;2023-05-11T08:00:32;97697.16;;;11.98;85.86
72525;BME280;60547;48.502;8.996;2023-05-11T08:02:58;97705.16;;;12.09;87.33
72525;BME280;60547;48.502;8.996;2023-05-11T08:05:23;97704.56;;;12.14;86.51
72525;BME280;60547;48.502;8.996;2023-05-11T08:07:49;97705.03;;;12.12;87.37
72525;BME280;60547;48.502;8.996;2023-05-11T08:10:14;97691.53;;;12.11;87.15
72525;BME280;60547;48.502;8.996;2023-05-11T08:12:40;97716.72;;;12.20;86.80
72525;BME280;60547;48.502;8.996;2023-05-11T08:15:06;97714.19;;;12.13;86.08
72525;BME280;60547;48.502;8.996;2023-05-11T08:17:32;97703.03;;;12.13;86.72
72525;BME280;60547;48.502;8.996;2023-05-11T08:19:57;97702.13;;;12.16;88.17
72525;BME280;60547;48.502;8.996;2023-05-11T08:22:23;97715.41;;;12.12;88.40
72525;BME280;60547;48.502;8.996;2023-05-11T08:24:49;97718.97;;;12.12;88.49
72525;BME280;60547;48.502;8.996;2023-05-11T08:27:15;97713.84;;;12.11;88.32
72525;BME280;60547;48.502;8.996;2023-05-11T08:29:41;97707.94;;;12.09;87.78
72525;BME280;60547;48.502;8.996;2023-05-11T08:32:07;97706.97;;;12.03;88.74
72525;BME280;60547;48.502;8.996;2023-05-11T08:34:32;97716.97;;;12.13;87.39
72525;BME280;60547;48.502;8.996;2023-05-11T08:36:58;97690.47;;;11.95;86.46
72525;BME280;60547;48.502;8.996;2023-05-11T08:39:26;97711.63;;;12.06;86.68
72525;BME280;60547;48.502;8.996;2023-05-11T08:41:52;97719.44;;;12.11;88.02
72525;BME280;60547;48.502;8.996;2023-05-11T08:44:18;97719.97;;;12.18;87.75
72525;BME280;60547;48.502;8.996;2023-05-11T08:46:48;97702.94;;;12.04;88.37
72525;BME280;60547;48.502;8.996;2023-05-11T08:49:17;97716.72;;;12.20;89.14
72525;BME280;60547;48.502;8.996;2023-05-11T08:51:43;97718.41;;;12.17;88.72
72525;BME280;60547;48.502;8.996;2023-05-11T08:54:09;97700.56;;;12.15;89.12
72525;BME280;60547;48.502;8.996;2023-05-11T08:56:35;97721.16;;;12.30;88.78
72525;BME280;60547;48.502;8.996;2023-05-11T08:59:03;97721.16;;;12.30;88.48
72525;BME280;60547;48.502;8.996;2023-05-11T09:01:29;97696.41;;;12.19;87.84
72525;BME280;60547;48.502;8.996;2023-05-11T09:03:55;97713.44;;;12.34;87.30
72525;BME280;60547;48.502;8.996;2023-05-11T09:06:23;97704.41;;;12.30;87.74
72525;BME280;60547;48.502;8.996;2023-05-11T09:08:48;97687.25;;;12.19;87.75
72525;BME280;60547;48.502;8.996;2023-05-11T09:11:14;97709.84;;;12.34;87.62
72525;BME280;60547;48.502;8.996;2023-05-11T09:13:40;97719.19;;;12.40;88.16
72525;BME280;60547;48.502;8.996;2023-05-11T09:16:06;97715.97;;;12.41;87.96
72525;BME280;60547;48.502;8.996;2023-05-11T09:18:31;97716.53;;;12.36;87.96
72525;BME280;60547;48.502;8.996;2023-05-11T09:20:59;97722.00;;;12.40;87.88
72525;BME280;60547;48.502;8.996;2023-05-11T09:23:25;97714.78;;;12.29;87.25
72525;BME280;60547;48.502;8.996;2023-05-11T09:25:51;97708.09;;;12.27;86.00
72525;BME280;60547;48.502;8.996;2023-05-11T09:28:24;97708.09;;;12.27;86.19
72525;BME280;60547;48.502;8.996;2023-05-11T09:30:50;97698.53;;;12.15;86.09
72525;BME280;60547;48.502;8.996;2023-05-11T09:33:21;97709.97;;;12.30;86.27
72525;BME280;60547;48.502;8.996;2023-05-11T09:35:48;97711.34;;;12.25;86.18
72525;BME280;60547;48.502;8.996;2023-05-11T09:38:15;97709.84;;;12.12;84.76
72525;BME280;60547;48.502;8.996;2023-05-11T09:40:49;97714.84;;;12.17;85.46
72525;BME280;60547;48.502;8.996;2023-05-11T09:43:16;97707.13;;;12.21;85.47
72525;BME280;60547;48.502;8.996;2023-05-11T09:45:48;97697.53;;;12.22;85.98
72525;BME280;60547;48.502;8.996;2023-05-11T09:50:41;97705.56;;;12.42;87.06
72525;BME280;60547;48.502;8.996;2023-05-11T09:53:07;97700.66;;;12.46;86.96
72525;BME280;60547;48.502;8.996;2023-05-11T09:55:33;97697.41;;;12.47;85.05
72525;BME280;60547;48.502;8.996;2023-05-11T09:57:59;97705.84;;;12.56;85.82
72525;BME280;60547;48.502;8.996;2023-05-11T10:00:24;97709.41;;;12.57;85.94
72525;BME280;60547;48.502;8.996;2023-05-11T10:03:06;97704.94;;;12.59;84.45
72525;BME280;60547;48.502;8.996;2023-05-11T10:05:35;97698.81;;;12.52;84.75
72525;BME280;60547;48.502;8.996;2023-05-11T10:08:02;97681.56;;;12.22;84.46
72525;BME280;60547;48.502;8.996;2023-05-11T10:10:30;97683.72;;;12.40;85.79
72525;BME280;60547;48.502;8.996;2023-05-11T10:13:00;97687.78;;;12.48;85.45
72525;BME280;60547;48.502;8.996;2023-05-11T10:15:27;97686.75;;;12.55;85.54
72525;BME280;60547;48.502;8.996;2023-05-11T10:17:56;97702.47;;;12.61;86.18
72525;BME280;60547;48.502;8.996;2023-05-11T10:20:23;97680.53;;;12.51;86.01
72525;BME280;60547;48.502;8.996;2023-05-11T10:22:51;97686.63;;;12.58;86.15
72525;BME280;60547;48.502;8.996;2023-05-11T10:25:20;97692.97;;;12.59;85.56
72525;BME280;60547;48.502;8.996;2023-05-11T10:27:47;97695.06;;;12.46;84.94
72525;BME280;60547;48.502;8.996;2023-05-11T10:30:13;97684.69;;;12.46;86.85
72525;BME280;60547;48.502;8.996;2023-05-11T10:32:38;97694.53;;;12.38;87.36
72525;BME280;60547;48.502;8.996;2023-05-11T10:35:05;97712.53;;;12.37;87.80
72525;BME280;60547;48.502;8.996;2023-05-11T10:37:32;97713.28;;;12.16;86.03
72525;BME280;60547;48.502;8.996;2023-05-11T10:39:58;97689.16;;;11.87;87.12
72525;BME280;60547;48.502;8.996;2023-05-11T10:51:31;97693.53;;;12.10;87.20
72525;BME280;60547;48.502;8.996;2023-05-11T11:02:38;97686.66;;;12.02;90.33
72525;BME280;60547;48.502;8.996;2023-05-11T11:05:05;97685.72;;;12.18;89.40
72525;BME280;60547;48.502;8.996;2023-05-11T11:07:57;97683.63;;;12.31;88.10
72525;BME280;60547;48.502;8.996;2023-05-11T11:10:36;97688.31;;;12.34;88.88
72525;BME280;60547;48.502;8.996;2023-05-11T11:13:03;97683.78;;;12.49;89.22
72525;BME280;60547;48.502;8.996;2023-05-11T11:20:49;97695.25;;;12.29;88.55
72525;BME280;60547;48.502;8.996;2023-05-11T11:26:13;97683.84;;;12.58;91.46
72525;BME280;60547;48.502;8.996;2023-05-11T11:31:31;97685.84;;;12.58;89.24
72525;BME280;60547;48.502;8.996;2023-05-11T11:33:58;97673.13;;;12.57;88.18
72525;BME280;60547;48.502;8.996;2023-05-11T11:39:20;97662.16;;;12.63;91.73
72525;BME280;60547;48.502;8.996;2023-05-11T11:42:01;97670.25;;;12.70;90.21
72525;BME280;60547;48.502;8.996;2023-05-11T11:44:27;97670.63;;;12.81;89.38
72525;BME280;60547;48.502;8.996;2023-05-11T11:49:38;97670.34;;;12.88;87.34
72525;BME280;60547;48.502;8.996;2023-05-11T11:52:04;97666.69;;;13.00;91.42
72525;BME280;60547;48.502;8.996;2023-05-11T11:54:36;97641.78;;;12.84;86.94
72525;BME280;60547;48.502;8.996;2023-05-11T11:57:03;97648.88;;;12.76;87.79
72525;BME280;60547;48.502;8.996;2023-05-11T11:59:29;97655.75;;;12.84;86.87
72525;BME280;60547;48.502;8.996;2023-05-11T12:01:55;97665.41;;;12.92;89.27
72525;BME280;60547;48.502;8.996;2023-05-11T12:04:37;97656.44;;;12.97;88.83
72525;BME280;60547;48.502;8.996;2023-05-11T12:07:04;97665.00;;;13.03;89.40
72525;BME280;60547;48.502;8.996;2023-05-11T12:09:32;97646.50;;;12.96;91.06
72525;BME280;60547;48.502;8.996;2023-05-11T12:11:59;97653.72;;;12.84;88.46
72525;BME280;60547;48.502;8.996;2023-05-11T12:14:25;97660.38;;;12.78;86.64
72525;BME280;60547;48.502;8.996;2023-05-11T12:17:05;97649.47;;;12.71;91.11
72525;BME280;60547;48.502;8.996;2023-05-11T12:19:37;97651.63;;;12.67;86.97
72525;BME280;60547;48.502;8.996;2023-05-11T12:22:03;97647.16;;;12.47;86.07
72525;BME280;60547;48.502;8.996;2023-05-11T12:24:28;97664.56;;;12.51;86.14
72525;BME280;60547;48.502;8.996;2023-05-11T12:26:55;97662.88;;;12.32;87.67
72525;BME280;60547;48.502;8.996;2023-05-11T12:29:21;97656.25;;;12.17;87.48
72525;BME280;60547;48.502;8.996;2023-05-11T12:31:47;97660.22;;;12.28;87.69
72525;BME280;60547;48.502;8.996;2023-05-11T12:34:16;97642.03;;;12.24;89.27
72525;BME280;60547;48.502;8.996;2023-05-11T12:36:46;97658.00;;;12.45;89.61
72525;BME280;60547;48.502;8.996;2023-05-11T12:39:17;97650.00;;;12.56;89.18
72525;BME280;60547;48.502;8.996;2023-05-11T12:41:42;97656.50;;;12.53;89.87
72525;BME280;60547;48.502;8.996;2023-05-11T12:44:09;97639.22;;;12.68;89.52
72525;BME280;60547;48.502;8.996;2023-05-11T12:46:35;97648.31;;;12.90;88.67
72525;BME280;60547;48.502;8.996;2023-05-11T12:49:00;97644.31;;;12.91;87.26
72525;BME280;60547;48.502;8.996;2023-05-11T12:52:00;97638.75;;;13.00;88.42
72525;BME280;60547;48.502;8.996;2023-05-11T12:54:27;97648.38;;;12.99;83.93
72525;BME280;60547;48.502;8.996;2023-05-11T12:56:52;97630.06;;;12.98;84.19
72525;BME280;60547;48.502;8.996;2023-05-11T12:59:31;97634.16;;;13.15;82.39
72525;BME280;60547;48.502;8.996;2023-05-11T13:02:16;97633.72;;;13.17;78.75
72525;BME280;60547;48.502;8.996;2023-05-11T13:04:43;97624.94;;;13.37;81.04
72525;BME280;60547;48.502;8.996;2023-05-11T13:07:10;97627.09;;;13.33;76.56
72525;BME280;60547;48.502;8.996;2023-05-11T13:09:36;97619.94;;;13.22;76.47
72525;BME280;60547;48.502;8.996;2023-05-11T13:12:20;97614.94;;;13.17;76.96
72525;BME280;60547;48.502;8.996;2023-05-11T13:14:48;97603.50;;;13.43;81.20
72525;BME280;60547;48.502;8.996;2023-05-11T13:19:55;97620.78;;;13.60;80.36
72525;BME280;60547;48.502;8.996;2023-05-11T13:22:21;97611.00;;;13.64;78.84
72525;BME280;60547;48.502;8.996;2023-05-11T13:24:47;97594.38;;;13.51;78.69
72525;BME280;60547;48.502;8.996;2023-05-11T13:27:13;97597.00;;;13.46;76.96
72525;BME280;60547;48.502;8.996;2023-05-11T13:29:39;97602.25;;;13.25;76.57
72525;BME280;60547;48.502;8.996;2023-05-11T13:32:05;97612.22;;;13.45;84.19
72525;BME280;60547;48.502;8.996;2023-05-11T13:34:31;97612.72;;;13.62;78.72
72525;BME280;60547;48.502;8.996;2023-05-11T13:36:56;97587.06;;;13.63;76.75
72525;BME280;60547;48.502;8.996;2023-05-11T13:39:22;97608.22;;;13.82;79.27
72525;BME280;60547;48.502;8.996;2023-05-11T13:41:47;97595.47;;;13.63;75.43
72525;BME280;60547;48.502;8.996;2023-05-11T13:44:13;97597.34;;;13.75;76.29